Time;durP1;ratioP1;P1;durP2;ratioP2;P2;SDS_P1;SDS_P2;PMS_P1;PMS_P2;Temp;Humidity;BMP_temperature;BMP_pressure;BME280_temperature;BME280_humidity;BME280_pressure;Samples;Min_cycle;Max_cycle;Signal;HPM_P1;HPM_P2
2023/09/22 00:02:07;;;;;;;8.27;4.50;;;;;;;;;;5090966;28;20203;-72
2023/09/22 00:04:35;;;;;;;6.93;5.27;;;;;;;;;;5090834;28;20196;-72
2023/09/22 00:07:02;;;;;;;6.23;5.67;;;;;;;;;;5098111;28;20219;-72
2023/09/22 00:09:29;;;;;;;7.83;5.33;;;;;;;;;;5097342;28;20204;-72
2023/09/22 00:11:57;;;;;;;5.37;4.77;;;;;;;;;;5090657;28;20196;-72
2023/09/22 00:14:24;;;;;;;4.83;4.40;;;;;;;;;;5104703;28;20202;-73
2023/09/22 00:16:51;;;;;;;8.27;4.80;;;;;;;;;;5091175;28;20253;-72
2023/09/22 00:19:17;;;;;;;6.13;4.53;;;;;;;;;;5091097;28;20266;-72
2023/09/22 00:21:45;;;;;;;6.97;4.20;;;;;;;;;;5090365;28;21023;-72
2023/09/22 00:24:14;;;;;;;5.07;3.97;;;;;;;;;;5091072;28;20254;-72
2023/09/22 00:26:41;;;;;;;4.73;3.67;;;;;;;;;;5090843;28;20266;-72
2023/09/22 00:29:09;;;;;;;6.83;4.37;;;;;;;;;;5092371;28;20718;-72
2023/09/22 00:31:36;;;;;;;5.73;4.60;;;;;;;;;;5104675;28;20207;-72
2023/09/22 00:34:03;;;;;;;14.23;7.00;;;;;;;;;;5101413;28;20700;-72
2023/09/22 00:36:29;;;;;;;5.47;4.97;;;;;;;;;;5115101;28;20219;-72
2023/09/22 00:38:56;;;;;;;5.23;4.77;;;;;;;;;;5114705;28;20219;-72
2023/09/22 00:41:23;;;;;;;4.57;4.07;;;;;;;;;;5115065;28;20202;-72
2023/09/22 00:43:50;;;;;;;6.37;4.37;;;;;;;;;;5101217;28;20196;-72
2023/09/22 00:46:23;;;;;;;6.00;4.10;;;;;;;;;;5103611;28;20678;-72
2023/09/22 00:48:50;;;;;;;5.03;4.27;;;;;;;;;;5095158;28;20200;-71
2023/09/22 00:51:19;;;;;;;4.33;3.93;;;;;;;;;;5094813;28;20200;-72
2023/09/22 00:53:47;;;;;;;5.43;4.27;;;;;;;;;;5114552;28;20236;-72
2023/09/22 00:56:14;;;;;;;6.23;3.60;;;;;;;;;;5114715;28;20282;-72
2023/09/22 00:58:41;;;;;;;6.10;3.70;;;;;;;;;;5094346;28;20280;-72
2023/09/22 01:01:08;;;;;;;4.10;3.60;;;;;;;;;;5094307;28;20690;-72
2023/09/22 01:03:37;;;;;;;4.27;3.90;;;;;;;;;;5107553;28;20228;-72
2023/09/22 01:06:04;;;;;;;4.87;4.30;;;;;;;;;;5093910;28;20204;-72
2023/09/22 01:08:31;;;;;;;4.20;3.60;;;;;;;;;;5094697;28;20204;-72
2023/09/22 01:10:57;;;;;;;7.33;3.90;;;;;;;;;;5095365;28;20274;-73
2023/09/22 01:13:24;;;;;;;4.37;3.97;;;;;;;;;;5106492;28;20720;-72
2023/09/22 01:15:51;;;;;;;5.60;3.80;;;;;;;;;;5108846;28;20204;-72
2023/09/22 01:18:18;;;;;;;4.10;3.47;;;;;;;;;;5114017;28;20227;-72
2023/09/22 01:20:46;;;;;;;4.80;3.90;;;;;;;;;;5099158;28;20216;-72
2023/09/22 01:23:15;;;;;;;5.57;4.10;;;;;;;;;;5106522;28;20192;-72
2023/09/22 01:25:43;;;;;;;3.53;3.23;;;;;;;;;;5107182;28;20200;-72
2023/09/22 01:28:11;;;;;;;4.90;3.67;;;;;;;;;;5093914;28;20743;-72
2023/09/22 01:30:38;;;;;;;4.80;4.40;;;;;;;;;;5107131;28;20196;-72
2023/09/22 01:33:05;;;;;;;6.43;3.90;;;;;;;;;;5094004;28;20200;-72
2023/09/22 01:35:33;;;;;;;4.23;3.73;;;;;;;;;;5107552;28;20200;-72
2023/09/22 01:38:06;;;;;;;4.70;3.50;;;;;;;;;;5102955;28;20235;-72
2023/09/22 01:40:36;;;;;;;5.37;3.77;;;;;;;;;;5109246;28;20200;-72
2023/09/22 01:43:03;;;;;;;3.97;3.67;;;;;;;;;;5104624;28;20203;-72
2023/09/22 01:45:30;;;;;;;6.27;4.00;;;;;;;;;;5096259;28;20590;-72
2023/09/22 01:47:57;;;;;;;4.27;3.20;;;;;;;;;;5104824;28;20199;-72
2023/09/22 01:50:24;;;;;;;3.67;3.33;;;;;;;;;;5095172;28;20716;-72
2023/09/22 01:52:52;;;;;;;5.87;4.20;;;;;;;;;;5093599;28;20228;-72
2023/09/22 01:55:19;;;;;;;3.87;3.53;;;;;;;;;;5093273;28;20716;-72
2023/09/22 01:57:49;;;;;;;5.80;4.00;;;;;;;;;;5093166;28;20674;-72
2023/09/22 02:00:18;;;;;;;5.97;3.80;;;;;;;;;;5093335;28;20220;-72
2023/09/22 02:02:45;;;;;;;4.70;4.30;;;;;;;;;;5093299;28;20591;-72
2023/09/22 02:05:14;;;;;;;6.57;3.80;;;;;;;;;;5099915;28;20199;-72
2023/09/22 02:07:42;;;;;;;4.10;3.70;;;;;;;;;;5099660;28;20200;-71
2023/09/22 02:10:11;;;;;;;5.97;4.23;;;;;;;;;;5093383;28;20279;-72
2023/09/22 02:12:38;;;;;;;5.37;3.93;;;;;;;;;;5093016;28;20201;-72
2023/09/22 02:15:09;;;;;;;5.87;4.40;;;;;;;;;;5092884;28;20196;-72
2023/09/22 02:17:36;;;;;;;4.43;3.63;;;;;;;;;;5108498;28;20199;-72
2023/09/22 02:20:07;;;;;;;8.73;3.93;;;;;;;;;;5104130;28;20239;-72
2023/09/22 02:22:35;;;;;;;4.10;3.70;;;;;;;;;;5106335;28;20199;-72
2023/09/22 02:25:02;;;;;;;5.90;3.97;;;;;;;;;;5092847;28;20239;-72
2023/09/22 02:27:28;;;;;;;4.53;3.90;;;;;;;;;;5105884;28;20214;-72
2023/09/22 02:29:56;;;;;;;4.37;3.97;;;;;;;;;;5101967;28;20678;-72
2023/09/22 02:32:26;;;;;;;4.60;4.13;;;;;;;;;;5099311;28;20196;-72
2023/09/22 02:34:54;;;;;;;4.43;3.50;;;;;;;;;;5102942;28;20207;-72
2023/09/22 02:37:20;;;;;;;4.53;3.93;;;;;;;;;;5092425;28;20212;-72
2023/09/22 02:39:47;;;;;;;4.57;4.10;;;;;;;;;;5092218;28;20231;-72
2023/09/22 02:42:15;;;;;;;8.47;4.27;;;;;;;;;;5106086;28;20626;-72
2023/09/22 02:44:41;;;;;;;3.40;3.10;;;;;;;;;;5103625;28;20207;-72
2023/09/22 02:47:08;;;;;;;4.30;3.97;;;;;;;;;;5094644;28;20197;-72
2023/09/22 02:49:36;;;;;;;3.87;3.57;;;;;;;;;;5092628;28;20670;-72
2023/09/22 02:52:03;;;;;;;4.50;4.07;;;;;;;;;;5105505;28;20577;-72
2023/09/22 02:54:30;;;;;;;5.63;3.27;;;;;;;;;;5092133;28;20212;-73
2023/09/22 02:56:57;;;;;;;12.17;4.43;;;;;;;;;;5105808;28;20205;-72
2023/09/22 02:59:24;;;;;;;4.80;3.03;;;;;;;;;;5091994;28;20231;-72
2023/09/22 03:01:52;;;;;;;6.07;3.77;;;;;;;;;;5091970;28;20200;-72
2023/09/22 03:04:18;;;;;;;14.30;5.47;;;;;;;;;;5092506;28;20239;-72
2023/09/22 03:06:47;;;;;;;5.93;5.33;;;;;;;;;;5091469;28;20196;-73
2023/09/22 03:09:14;;;;;;;5.43;4.83;;;;;;;;;;5104897;28;20207;-73
2023/09/22 03:11:41;;;;;;;4.73;3.73;;;;;;;;;;5092388;28;20208;-72
2023/09/22 03:14:09;;;;;;;4.77;4.37;;;;;;;;;;5091784;28;20215;-73
2023/09/22 03:16:37;;;;;;;6.13;3.93;;;;;;;;;;5098155;28;20211;-72
2023/09/22 03:19:04;;;;;;;10.83;5.07;;;;;;;;;;5111895;28;20235;-73
2023/09/22 03:21:30;;;;;;;5.80;4.43;;;;;;;;;;5091393;28;20204;-73
2023/09/22 03:23:59;;;;;;;5.30;3.33;;;;;;;;;;5105349;28;20195;-73
2023/09/22 03:26:25;;;;;;;6.37;4.90;;;;;;;;;;5091399;28;20283;-72
2023/09/22 03:28:52;;;;;;;11.47;10.07;;;;;;;;;;5105279;28;20200;-73
2023/09/22 03:31:19;;;;;;;19.00;17.00;;;;;;;;;;5104208;28;20200;-72
2023/09/22 03:33:47;;;;;;;9.83;8.00;;;;;;;;;;5105194;28;20199;-72
2023/09/22 03:36:14;;;;;;;9.17;7.73;;;;;;;;;;5091376;28;20196;-72
2023/09/22 03:38:42;;;;;;;7.57;6.90;;;;;;;;;;5091710;28;20231;-72
2023/09/22 03:41:10;;;;;;;9.30;8.40;;;;;;;;;;5090972;28;20201;-72
2023/09/22 03:43:37;;;;;;;20.00;15.47;;;;;;;;;;5091242;28;20671;-72
2023/09/22 03:46:04;;;;;;;10.67;7.67;;;;;;;;;;5099330;28;20204;-73
2023/09/22 03:48:30;;;;;;;5.07;4.50;;;;;;;;;;5098321;28;20200;-72
2023/09/22 03:50:57;;;;;;;4.97;4.43;;;;;;;;;;5102313;28;20249;-72
2023/09/22 03:53:24;;;;;;;4.70;4.30;;;;;;;;;;5104404;28;20199;-71
2023/09/22 03:55:51;;;;;;;6.73;6.03;;;;;;;;;;5091032;28;20200;-72
2023/09/22 03:58:20;;;;;;;6.03;5.43;;;;;;;;;;5104431;28;20615;-72
2023/09/22 04:00:46;;;;;;;4.70;4.20;;;;;;;;;;5101380;28;20357;-72
2023/09/22 04:03:13;;;;;;;8.27;4.73;;;;;;;;;;5106881;28;20359;-72
2023/09/22 04:05:40;;;;;;;5.20;4.70;;;;;;;;;;5111074;28;20199;-72
2023/09/22 04:08:07;;;;;;;4.80;4.13;;;;;;;;;;5110007;28;20207;-72
2023/09/22 04:10:34;;;;;;;6.47;5.00;;;;;;;;;;5108386;28;20670;-72
2023/09/22 04:13:01;;;;;;;6.17;5.47;;;;;;;;;;5102576;28;20595;-72
2023/09/22 04:15:29;;;;;;;6.77;4.97;;;;;;;;;;5098051;28;20195;-72
2023/09/22 04:17:55;;;;;;;5.87;4.83;;;;;;;;;;5094187;28;20204;-72
2023/09/22 04:20:28;;;;;;;5.63;5.13;;;;;;;;;;5105328;28;20592;-72
2023/09/22 04:22:56;;;;;;;5.67;4.30;;;;;;;;;;5105274;28;20208;-72
2023/09/22 04:25:29;;;;;;;9.53;4.60;;;;;;;;;;5090706;28;20748;-72
2023/09/22 04:27:57;;;;;;;5.90;5.00;;;;;;;;;;5091131;28;20249;-72
2023/09/22 04:30:25;;;;;;;5.47;4.20;;;;;;;;;;5091698;28;20258;-72
2023/09/22 04:32:54;;;;;;;5.03;4.57;;;;;;;;;;5091209;28;20207;-72
2023/09/22 04:35:21;;;;;;;6.00;4.93;;;;;;;;;;5091158;28;20247;-72
2023/09/22 04:37:48;;;;;;;6.20;5.60;;;;;;;;;;5103860;28;20200;-72
2023/09/22 04:40:24;;;;;;;8.23;5.73;;;;;;;;;;5106544;28;20223;-72
2023/09/22 04:42:51;;;;;;;6.30;5.70;;;;;;;;;;5098470;28;20207;-72
2023/09/22 04:45:19;;;;;;;6.53;5.23;;;;;;;;;;5105167;28;20210;-72
2023/09/22 04:47:47;;;;;;;6.03;5.53;;;;;;;;;;5110581;28;20199;-72
2023/09/22 04:50:16;;;;;;;7.40;5.40;;;;;;;;;;5105753;28;20195;-72
2023/09/22 04:52:43;;;;;;;6.03;5.43;;;;;;;;;;5100677;28;20203;-72
2023/09/22 04:55:11;;;;;;;5.50;5.00;;;;;;;;;;5110564;28;20196;-72
2023/09/22 04:57:38;;;;;;;6.40;5.63;;;;;;;;;;5110861;28;20200;-72
2023/09/22 05:00:13;;;;;;;4.90;4.23;;;;;;;;;;5110921;28;20223;-73
2023/09/22 05:02:40;;;;;;;6.87;5.00;;;;;;;;;;5106893;28;20206;-73
2023/09/22 05:05:08;;;;;;;5.90;5.30;;;;;;;;;;5089970;28;20193;-73
2023/09/22 05:07:36;;;;;;;6.50;5.17;;;;;;;;;;5103496;28;20200;-73
2023/09/22 05:10:03;;;;;;;4.83;4.37;;;;;;;;;;5096639;28;20211;-73
2023/09/22 05:12:31;;;;;;;6.93;5.27;;;;;;;;;;5096092;28;20597;-73
2023/09/22 05:15:00;;;;;;;10.50;5.10;;;;;;;;;;5098930;28;20188;-73
2023/09/22 05:17:27;;;;;;;9.03;4.97;;;;;;;;;;5099461;28;20582;-73
2023/09/22 05:19:54;;;;;;;6.07;4.90;;;;;;;;;;5095174;28;20766;-73
2023/09/22 05:22:21;;;;;;;5.10;4.47;;;;;;;;;;5093859;28;20200;-73
2023/09/22 05:24:50;;;;;;;8.33;5.40;;;;;;;;;;5113949;28;20200;-73
2023/09/22 05:27:17;;;;;;;5.67;5.17;;;;;;;;;;5099675;28;20587;-74
2023/09/22 05:29:44;;;;;;;7.67;5.87;;;;;;;;;;5101541;28;20211;-74
2023/09/22 05:32:10;;;;;;;8.50;6.07;;;;;;;;;;5113084;28;20240;-74
2023/09/22 05:34:39;;;;;;;8.63;5.53;;;;;;;;;;5093852;28;20208;-74
2023/09/22 05:37:06;;;;;;;7.90;5.20;;;;;;;;;;5091862;28;20620;-75
2023/09/22 05:39:34;;;;;;;10.40;5.00;;;;;;;;;;5093788;28;20211;-77
2023/09/22 05:42:04;;;;;;;7.13;4.73;;;;;;;;;;5107382;28;20203;-77
2023/09/22 05:44:30;;;;;;;7.27;4.90;;;;;;;;;;5101916;28;20207;-79
2023/09/22 05:46:57;;;;;;;11.00;9.07;;;;;;;;;;5095402;28;20222;-78
2023/09/22 05:49:24;;;;;;;12.30;11.20;;;;;;;;;;5096013;28;20679;-77
2023/09/22 05:51:51;;;;;;;7.10;6.40;;;;;;;;;;5112069;28;20202;-77
2023/09/22 05:54:17;;;;;;;10.63;6.70;;;;;;;;;;5112869;28;20200;-77
2023/09/22 05:56:46;;;;;;;10.10;7.60;;;;;;;;;;5112366;28;20203;-78
2023/09/22 05:59:15;;;;;;;7.03;6.33;;;;;;;;;;5113605;28;20208;-77
2023/09/22 06:01:41;;;;;;;7.27;6.67;;;;;;;;;;5113353;28;20284;-77
2023/09/22 06:04:09;;;;;;;7.97;4.53;;;;;;;;;;5113503;28;20199;-77
2023/09/22 06:06:36;;;;;;;4.80;4.40;;;;;;;;;;5113440;28;20207;-78
2023/09/22 06:09:10;;;;;;;7.97;4.47;;;;;;;;;;5113461;28;20196;-77
2023/09/22 06:11:38;;;;;;;5.83;4.57;;;;;;;;;;5113732;28;20206;-78
2023/09/22 06:14:05;;;;;;;6.13;5.33;;;;;;;;;;5113388;28;20230;-77
2023/09/22 06:16:33;;;;;;;7.83;5.37;;;;;;;;;;5113081;28;20204;-77
2023/09/22 06:19:00;;;;;;;7.27;5.03;;;;;;;;;;5113012;28;20463;-77
2023/09/22 06:21:29;;;;;;;5.10;4.40;;;;;;;;;;5106017;28;20232;-77
2023/09/22 06:23:57;;;;;;;7.30;4.90;;;;;;;;;;5106897;28;20227;-77
2023/09/22 06:26:24;;;;;;;8.77;5.03;;;;;;;;;;5112245;28;20195;-77
2023/09/22 06:28:51;;;;;;;6.63;5.27;;;;;;;;;;5113498;28;20272;-77
2023/09/22 06:31:18;;;;;;;7.67;4.57;;;;;;;;;;5113301;28;20282;-77
2023/09/22 06:33:48;;;;;;;4.83;4.27;;;;;;;;;;5112849;28;20202;-76
2023/09/22 06:36:15;;;;;;;6.90;5.00;;;;;;;;;;5112365;28;20218;-76
2023/09/22 06:38:41;;;;;;;5.07;4.57;;;;;;;;;;5112823;28;20206;-77
2023/09/22 06:41:08;;;;;;;8.93;4.53;;;;;;;;;;5112816;28;20287;-76
2023/09/22 06:43:36;;;;;;;7.23;4.80;;;;;;;;;;5112985;28;20227;-76
2023/09/22 06:46:04;;;;;;;6.47;3.40;;;;;;;;;;5112459;28;20206;-76
2023/09/22 06:48:31;;;;;;;7.03;4.33;;;;;;;;;;5112629;28;20234;-76
2023/09/22 06:50:59;;;;;;;10.63;4.50;;;;;;;;;;5112530;28;20200;-76
2023/09/22 06:53:28;;;;;;;11.20;3.70;;;;;;;;;;5112386;28;20709;-76
2023/09/22 06:56:06;;;;;;;5.50;4.50;;;;;;;;;;5112054;28;20199;-76
2023/09/22 06:58:33;;;;;;;6.27;4.17;;;;;;;;;;5112447;28;20249;-76
2023/09/22 07:01:08;;;;;;;5.30;4.13;;;;;;;;;;5112013;28;20223;-76
2023/09/22 07:03:35;;;;;;;6.83;3.90;;;;;;;;;;5112166;28;20689;-76
2023/09/22 07:06:05;;;;;;;7.87;4.90;;;;;;;;;;5112309;28;20203;-76
2023/09/22 07:08:31;;;;;;;5.80;5.13;;;;;;;;;;5112462;28;20258;-76
2023/09/22 07:11:03;;;;;;;8.70;4.50;;;;;;;;;;5112000;28;20226;-76
2023/09/22 07:13:30;;;;;;;7.63;4.40;;;;;;;;;;5110922;28;20572;-76
2023/09/22 07:15:57;;;;;;;6.37;4.67;;;;;;;;;;5094322;28;20242;-76
2023/09/22 07:18:25;;;;;;;6.10;4.80;;;;;;;;;;5102861;28;20223;-76
2023/09/22 07:20:52;;;;;;;5.80;3.90;;;;;;;;;;5109975;28;20784;-76
2023/09/22 07:23:21;;;;;;;5.13;3.53;;;;;;;;;;5106596;28;20195;-76
2023/09/22 07:25:58;;;;;;;5.43;4.03;;;;;;;;;;5098444;28;20199;-77
2023/09/22 07:28:26;;;;;;;5.60;3.90;;;;;;;;;;5100008;28;20227;-76
2023/09/22 07:30:52;;;;;;;4.30;3.90;;;;;;;;;;5091670;28;20279;-76
2023/09/22 07:33:19;;;;;;;6.97;4.00;;;;;;;;;;5091770;28;20253;-76
2023/09/22 07:35:48;;;;;;;9.50;4.13;;;;;;;;;;5104755;28;20204;-77
2023/09/22 07:38:16;;;;;;;7.73;4.37;;;;;;;;;;5103625;28;20249;-76
2023/09/22 07:40:44;;;;;;;8.10;4.00;;;;;;;;;;5111509;28;20218;-76
2023/09/22 07:43:11;;;;;;;9.27;5.07;;;;;;;;;;5098123;28;20196;-76
2023/09/22 07:45:39;;;;;;;4.87;3.90;;;;;;;;;;5091233;28;20208;-76
2023/09/22 07:48:06;;;;;;;6.87;4.00;;;;;;;;;;5091628;28;20664;-76
2023/09/22 07:50:34;;;;;;;6.33;3.90;;;;;;;;;;5112038;28;20200;-76
2023/09/22 07:53:02;;;;;;;10.17;4.07;;;;;;;;;;5110380;28;20203;-76
2023/09/22 07:55:29;;;;;;;4.57;3.77;;;;;;;;;;5091642;28;20283;-76
2023/09/22 07:57:57;;;;;;;12.90;4.40;;;;;;;;;;5104466;28;20203;-76
2023/09/22 08:00:26;;;;;;;11.97;4.47;;;;;;;;;;5091107;28;20227;-77
2023/09/22 08:02:53;;;;;;;8.90;4.00;;;;;;;;;;5090743;28;20208;-77
2023/09/22 08:05:20;;;;;;;7.77;4.50;;;;;;;;;;5090890;28;20204;-77
2023/09/22 08:07:49;;;;;;;5.30;4.80;;;;;;;;;;5105199;28;20583;-77
2023/09/22 08:10:17;;;;;;;7.93;3.60;;;;;;;;;;5111391;28;20207;-77
2023/09/22 08:12:44;;;;;;;4.23;3.47;;;;;;;;;;5094199;28;20283;-76
2023/09/22 08:15:14;;;;;;;6.00;4.17;;;;;;;;;;5101074;28;20645;-76
2023/09/22 08:17:42;;;;;;;11.63;4.43;;;;;;;;;;5091510;28;20204;-76
2023/09/22 08:20:12;;;;;;;5.07;3.47;;;;;;;;;;5092891;28;20204;-77
2023/09/22 08:22:40;;;;;;;6.73;4.30;;;;;;;;;;5104162;28;20749;-77
2023/09/22 08:25:09;;;;;;;6.25;4.07;;;;;;;;;;5090746;28;20196;-77
2023/09/22 08:27:36;;;;;;;10.48;3.60;;;;;;;;;;5091026;28;20200;-77
2023/09/22 08:30:09;;;;;;;8.50;3.92;;;;;;;;;;5101140;28;20211;-76
2023/09/22 08:32:39;;;;;;;6.45;4.10;;;;;;;;;;5109564;28;20237;-76
2023/09/22 08:35:07;;;;;;;5.43;4.00;;;;;;;;;;5110851;28;20203;-77
2023/09/22 08:37:36;;;;;;;4.07;3.67;;;;;;;;;;5110425;28;20214;-77
2023/09/22 08:40:09;;;;;;;9.18;4.55;;;;;;;;;;5111310;28;20209;-76
2023/09/22 08:42:37;;;;;;;6.35;4.70;;;;;;;;;;5110017;28;20315;-77
2023/09/22 08:45:06;;;;;;;5.25;4.20;;;;;;;;;;5110869;28;20690;-77
2023/09/22 08:47:33;;;;;;;8.60;3.83;;;;;;;;;;5111085;28;20211;-77
2023/09/22 08:50:03;;;;;;;6.63;4.15;;;;;;;;;;5112079;28;20195;-76
2023/09/22 08:52:29;;;;;;;5.40;3.45;;;;;;;;;;5115119;28;20192;-77
2023/09/22 08:54:58;;;;;;;8.27;3.58;;;;;;;;;;5114841;28;20282;-77
2023/09/22 08:57:25;;;;;;;6.82;3.95;;;;;;;;;;5114735;28;20199;-77
2023/09/22 08:59:56;;;;;;;6.65;3.40;;;;;;;;;;5115157;28;20410;-77
2023/09/22 09:02:24;;;;;;;4.80;3.85;;;;;;;;;;5114842;28;20608;-77
2023/09/22 09:04:53;;;;;;;4.07;3.10;;;;;;;;;;5114916;28;20252;-77
2023/09/22 09:07:23;;;;;;;7.30;4.00;;;;;;;;;;5114742;28;20290;-76
2023/09/22 09:09:52;;;;;;;10.65;4.47;;;;;;;;;;5114675;28;20195;-78
2023/09/22 09:12:19;;;;;;;6.85;3.83;;;;;;;;;;5114387;28;20202;-78
2023/09/22 09:14:49;;;;;;;7.60;4.05;;;;;;;;;;5106623;28;20200;-76
2023/09/22 09:17:20;;;;;;;4.07;3.53;;;;;;;;;;5108296;28;20227;-76
2023/09/22 09:19:48;;;;;;;7.13;3.67;;;;;;;;;;5104804;28;20234;-76
2023/09/22 09:22:15;;;;;;;5.57;4.05;;;;;;;;;;5100810;28;20706;-76
2023/09/22 09:24:45;;;;;;;8.82;3.97;;;;;;;;;;5112570;28;20200;-76
2023/09/22 09:27:17;;;;;;;6.18;4.07;;;;;;;;;;5099873;28;20197;-77
2023/09/22 09:29:45;;;;;;;4.70;3.33;;;;;;;;;;5105814;28;20200;-74
2023/09/22 09:32:12;;;;;;;3.75;3.20;;;;;;;;;;5106646;28;20295;-75
2023/09/22 09:34:40;;;;;;;6.60;3.75;;;;;;;;;;5093064;28;20204;-75
2023/09/22 09:37:13;;;;;;;4.57;3.47;;;;;;;;;;5095994;28;20265;-77
2023/09/22 09:39:48;;;;;;;5.50;4.63;;;;;;;;;;5104242;28;20792;-74
2023/09/22 09:42:18;;;;;;;4.88;4.30;;;;;;;;;;5098379;28;20218;-75
2023/09/22 09:44:50;;;;;;;10.93;4.10;;;;;;;;;;5102060;28;20204;-75
2023/09/22 09:47:22;;;;;;;9.15;4.43;;;;;;;;;;5093761;28;20592;-75
2023/09/22 09:49:52;;;;;;;12.05;4.90;;;;;;;;;;5106966;28;20737;-74
2023/09/22 09:52:23;;;;;;;3.95;3.65;;;;;;;;;;5093286;28;20193;-74
2023/09/22 09:55:02;;;;;;;8.18;4.63;;;;;;;;;;5108300;28;20207;-75
2023/09/22 09:57:30;;;;;;;11.73;5.38;;;;;;;;;;5103649;28;20219;-75
2023/09/22 09:59:57;;;;;;;5.13;3.63;;;;;;;;;;5101251;28;20619;-74
2023/09/22 10:02:24;;;;;;;5.32;4.20;;;;;;;;;;5102340;28;20277;-75
2023/09/22 10:04:51;;;;;;;5.97;4.10;;;;;;;;;;5095828;28;20686;-75
2023/09/22 10:07:18;;;;;;;6.88;4.18;;;;;;;;;;5106824;28;20193;-75
2023/09/22 10:09:45;;;;;;;5.63;3.95;;;;;;;;;;5093583;28;20196;-75
2023/09/22 10:12:14;;;;;;;5.57;3.85;;;;;;;;;;5096456;28;20248;-75
2023/09/22 10:14:44;;;;;;;7.75;4.60;;;;;;;;;;5102613;28;20694;-75
2023/09/22 10:17:21;;;;;;;6.13;3.83;;;;;;;;;;5097652;28;20196;-75
2023/09/22 10:19:48;;;;;;;8.48;4.57;;;;;;;;;;5100784;28;20236;-74
2023/09/22 10:22:14;;;;;;;8.27;3.40;;;;;;;;;;5105809;28;20227;-75
2023/09/22 10:24:42;;;;;;;14.68;3.97;;;;;;;;;;5092997;28;20279;-75
2023/09/22 10:27:11;;;;;;;12.15;4.13;;;;;;;;;;5092629;28;20204;-75
2023/09/22 10:29:51;;;;;;;8.90;4.80;;;;;;;;;;5092938;28;20307;-75
2023/09/22 10:32:23;;;;;;;10.90;4.18;;;;;;;;;;5092544;28;20196;-74
2023/09/22 10:34:51;;;;;;;7.35;3.88;;;;;;;;;;5093370;28;20238;-74
2023/09/22 10:37:17;;;;;;;8.32;3.53;;;;;;;;;;5106379;28;20585;-75
2023/09/22 10:39:56;;;;;;;5.38;4.20;;;;;;;;;;5092610;28;20589;-74
2023/09/22 10:42:24;;;;;;;6.00;3.97;;;;;;;;;;5097326;28;20250;-74
2023/09/22 10:45:03;;;;;;;6.22;3.75;;;;;;;;;;5112872;28;20235;-74
2023/09/22 10:47:40;;;;;;;8.27;4.25;;;;;;;;;;5112898;28;20203;-74
2023/09/22 10:50:12;;;;;;;9.57;4.68;;;;;;;;;;5111986;28;20290;-74
2023/09/22 10:52:39;;;;;;;7.38;4.65;;;;;;;;;;5102570;28;20204;-74
2023/09/22 10:55:07;;;;;;;8.88;4.78;;;;;;;;;;5095911;28;20248;-74
2023/09/22 10:57:36;;;;;;;6.97;4.22;;;;;;;;;;5112651;28;20211;-74
2023/09/22 11:00:13;;;;;;;7.55;3.35;;;;;;;;;;5095169;28;20283;-75
2023/09/22 11:02:40;;;;;;;12.77;4.32;;;;;;;;;;5091512;28;20227;-75
2023/09/22 11:05:08;;;;;;;7.68;3.75;;;;;;;;;;5105491;28;20196;-74
2023/09/22 11:07:37;;;;;;;9.15;3.45;;;;;;;;;;5097942;28;20250;-75
2023/09/22 11:10:05;;;;;;;7.28;4.10;;;;;;;;;;5098003;28;20675;-74
2023/09/22 11:12:31;;;;;;;10.35;4.28;;;;;;;;;;5103276;28;20204;-75
2023/09/22 11:14:58;;;;;;;5.53;4.10;;;;;;;;;;5091237;28;20204;-75
2023/09/22 11:17:39;;;;;;;5.70;3.42;;;;;;;;;;5091905;28;20603;-75
2023/09/22 11:20:12;;;;;;;9.13;3.72;;;;;;;;;;5091721;28;20207;-75
2023/09/22 11:22:40;;;;;;;11.93;4.38;;;;;;;;;;5094009;28;20282;-75
2023/09/22 11:25:09;;;;;;;4.53;3.60;;;;;;;;;;5112274;28;20231;-75
2023/09/22 11:27:45;;;;;;;5.80;3.70;;;;;;;;;;5107799;28;20564;-75
2023/09/22 11:30:16;;;;;;;4.68;3.88;;;;;;;;;;5092549;28;20224;-75
2023/09/22 11:32:45;;;;;;;6.78;3.58;;;;;;;;;;5102283;28;20204;-74
2023/09/22 11:35:30;;;;;;;8.30;3.97;;;;;;;;;;5104525;28;20286;-74
2023/09/22 11:37:58;;;;;;;4.47;3.40;;;;;;;;;;5099882;28;20298;-80
2023/09/22 11:40:28;;;;;;;6.18;3.97;;;;;;;;;;5096886;28;20214;-80
2023/09/22 11:42:54;;;;;;;4.35;3.75;;;;;;;;;;5098581;28;20235;-78
2023/09/22 11:45:22;;;;;;;7.25;4.25;;;;;;;;;;5110991;28;20207;-74
2023/09/22 11:48:03;;;;;;;6.05;3.78;;;;;;;;;;5098129;28;20204;-74
2023/09/22 11:50:30;;;;;;;5.57;3.30;;;;;;;;;;5100783;28;20283;-74
2023/09/22 11:53:08;;;;;;;5.30;2.92;;;;;;;;;;5099848;28;20286;-74
2023/09/22 11:55:36;;;;;;;7.50;4.07;;;;;;;;;;5097448;28;20214;-74
2023/09/22 11:58:04;;;;;;;7.07;3.30;;;;;;;;;;5111316;28;20575;-74
2023/09/22 12:00:31;;;;;;;8.10;4.15;;;;;;;;;;5107477;28;20670;-74
2023/09/22 12:02:59;;;;;;;7.20;4.13;;;;;;;;;;5103530;28;20223;-75
2023/09/22 12:05:25;;;;;;;9.50;3.88;;;;;;;;;;5107709;28;20252;-74
2023/09/22 12:07:55;;;;;;;10.85;3.83;;;;;;;;;;5108574;28;20256;-74
2023/09/22 12:10:22;;;;;;;6.30;4.00;;;;;;;;;;5111554;28;20207;-74
2023/09/22 12:12:48;;;;;;;7.45;4.22;;;;;;;;;;5110667;28;20780;-74
2023/09/22 12:15:15;;;;;;;6.35;4.25;;;;;;;;;;5111369;28;20206;-74
2023/09/22 12:17:42;;;;;;;5.28;3.78;;;;;;;;;;5112235;28;20601;-75
2023/09/22 12:20:12;;;;;;;7.13;4.38;;;;;;;;;;5102111;28;20635;-75
2023/09/22 12:22:39;;;;;;;7.07;4.15;;;;;;;;;;5107006;28;20227;-75
2023/09/22 12:25:07;;;;;;;6.57;3.90;;;;;;;;;;5110878;28;20196;-75
2023/09/22 12:27:34;;;;;;;8.52;4.15;;;;;;;;;;5110962;28;20207;-75
2023/09/22 12:30:01;;;;;;;4.20;3.70;;;;;;;;;;5111162;28;20708;-75
2023/09/22 12:32:28;;;;;;;12.90;4.32;;;;;;;;;;5110984;28;20203;-75
2023/09/22 12:34:54;;;;;;;8.90;3.70;;;;;;;;;;5110957;28;20198;-75
2023/09/22 12:37:23;;;;;;;5.95;3.08;;;;;;;;;;5110062;28;20581;-75
2023/09/22 12:39:49;;;;;;;8.25;4.00;;;;;;;;;;5108997;28;20199;-75
2023/09/22 12:42:16;;;;;;;8.43;4.05;;;;;;;;;;5110807;28;20226;-75
2023/09/22 12:44:43;;;;;;;5.57;3.85;;;;;;;;;;5110996;28;20199;-75
2023/09/22 12:47:10;;;;;;;4.68;3.47;;;;;;;;;;5110758;28;20200;-75
2023/09/22 12:49:38;;;;;;;5.50;4.20;;;;;;;;;;5110794;28;20210;-75
2023/09/22 12:52:05;;;;;;;5.85;3.55;;;;;;;;;;5111035;28;20211;-75
2023/09/22 12:54:33;;;;;;;5.35;3.80;;;;;;;;;;5110387;28;20601;-75
2023/09/22 12:56:59;;;;;;;5.97;3.75;;;;;;;;;;5110930;28;20207;-75
2023/09/22 12:59:27;;;;;;;4.63;3.60;;;;;;;;;;5111131;28;20260;-75
2023/09/22 13:01:53;;;;;;;4.68;3.50;;;;;;;;;;5110503;28;20619;-75
2023/09/22 13:04:20;;;;;;;9.02;3.72;;;;;;;;;;5110534;28;20641;-75
2023/09/22 13:06:47;;;;;;;9.57;3.70;;;;;;;;;;5110323;28;20199;-75
2023/09/22 13:09:14;;;;;;;8.95;4.00;;;;;;;;;;5110759;28;20195;-75
2023/09/22 13:11:42;;;;;;;7.75;3.70;;;;;;;;;;5110511;28;20249;-75
2023/09/22 13:14:09;;;;;;;4.70;3.80;;;;;;;;;;5104124;28;20192;-75
2023/09/22 13:16:36;;;;;;;7.07;3.55;;;;;;;;;;5110374;28;20210;-75
2023/09/22 13:19:03;;;;;;;5.50;3.50;;;;;;;;;;5110902;28;20234;-75
2023/09/22 13:21:30;;;;;;;6.93;3.65;;;;;;;;;;5110342;28;20235;-75
2023/09/22 13:23:57;;;;;;;6.22;3.30;;;;;;;;;;5097021;28;20228;-75
2023/09/22 13:26:24;;;;;;;5.50;3.45;;;;;;;;;;5097351;28;20204;-75
2023/09/22 13:28:56;;;;;;;6.38;3.90;;;;;;;;;;5096296;28;20208;-75
2023/09/22 13:31:23;;;;;;;5.45;4.05;;;;;;;;;;5090254;28;20220;-75
2023/09/22 13:33:50;;;;;;;11.00;4.07;;;;;;;;;;5089917;28;20633;-75
2023/09/22 13:36:17;;;;;;;5.13;3.60;;;;;;;;;;5090275;28;20204;-75
2023/09/22 13:38:45;;;;;;;7.13;3.60;;;;;;;;;;5095384;28;20196;-75
2023/09/22 13:41:12;;;;;;;7.75;3.60;;;;;;;;;;5105151;28;20210;-75
2023/09/22 13:43:39;;;;;;;5.22;3.42;;;;;;;;;;5109508;28;20319;-75
2023/09/22 13:46:11;;;;;;;8.75;3.80;;;;;;;;;;5113534;28;20245;-75
2023/09/22 13:48:39;;;;;;;6.30;3.28;;;;;;;;;;5100416;28;20274;-74
2023/09/22 13:51:06;;;;;;;7.82;3.90;;;;;;;;;;5103262;28;20200;-75
2023/09/22 13:53:34;;;;;;;5.38;3.25;;;;;;;;;;5093618;28;20619;-75
2023/09/22 13:56:01;;;;;;;9.10;3.65;;;;;;;;;;5093591;28;20211;-75
2023/09/22 13:58:28;;;;;;;5.50;3.53;;;;;;;;;;5093135;28;20710;-74
2023/09/22 14:00:55;;;;;;;7.30;4.00;;;;;;;;;;5093628;28;20204;-74
2023/09/22 14:03:24;;;;;;;5.20;3.58;;;;;;;;;;5093380;28;20315;-74
2023/09/22 14:05:51;;;;;;;10.85;3.25;;;;;;;;;;5093111;28;20238;-74
2023/09/22 14:08:18;;;;;;;6.78;3.67;;;;;;;;;;5093653;28;20192;-75
2023/09/22 14:10:45;;;;;;;5.68;3.25;;;;;;;;;;5093188;28;20200;-75
2023/09/22 14:13:12;;;;;;;11.55;4.43;;;;;;;;;;5106561;28;20228;-75
2023/09/22 14:15:39;;;;;;;5.63;4.47;;;;;;;;;;5105004;28;20252;-75
2023/09/22 14:18:06;;;;;;;7.97;3.92;;;;;;;;;;5099226;28;20223;-74
2023/09/22 14:20:34;;;;;;;5.90;3.35;;;;;;;;;;5097572;28;20287;-74
2023/09/22 14:23:02;;;;;;;6.07;3.47;;;;;;;;;;5092540;28;20277;-74
2023/09/22 14:25:30;;;;;;;10.00;4.38;;;;;;;;;;5092578;28;20208;-74
2023/09/22 14:27:57;;;;;;;8.57;3.92;;;;;;;;;;5099912;28;20207;-73
2023/09/22 14:30:24;;;;;;;7.25;3.78;;;;;;;;;;5107233;28;20666;-73
2023/09/22 14:32:52;;;;;;;8.70;4.35;;;;;;;;;;5099322;28;20260;-73
2023/09/22 14:35:19;;;;;;;5.53;3.78;;;;;;;;;;5108335;28;20294;-73
2023/09/22 14:37:48;;;;;;;8.88;3.92;;;;;;;;;;5094838;28;20208;-74
2023/09/22 14:40:14;;;;;;;9.23;3.95;;;;;;;;;;5099258;28;20195;-74
2023/09/22 14:42:41;;;;;;;12.20;4.32;;;;;;;;;;5098462;28;20664;-74
2023/09/22 14:45:09;;;;;;;9.07;4.38;;;;;;;;;;5092712;28;20197;-74
2023/09/22 14:47:36;;;;;;;9.77;3.72;;;;;;;;;;5098795;28;20199;-74